EPKT Airport Information

Runway Information
Runway 09 Length 9183 ft width 195 ft
Elevation 970 ft Threshold 0 ft Heading 90
Runway 27 Length 9183 ft Width 195 ft
Elevation 994 ft Threshold 0 ft Heading 270
Airport Frequencies
Type APP Name APP Frequency 121.075 MHZ
Type GCCD Name HANDLING Frequency 131.45 MHZ
Type TWR Name TWR Frequency 129.25 MHZ
Airport Navaids
Type NDB Name Katowice Frequency 285 KHZ
Airport Weather Information & NOTAM
ADDS - METARS form results

(2356 UTC 22 April 2019)
Data provider http://aviationweather.gov/metar/data/
 
METAR text: EPKT 222330Z 09014KT CAVOK 08/M02 Q1017
Conditions at: EPKT (KATOWICE/PYRZOWI, PL) observed 2330 UTC 22 April 2019
Temperature: 8.0°C (46°F)
Dewpoint: -2.0°C (28°F) [RH = 49%]
Pressure (altimeter): 30.03 inches Hg (1017.0 mb)
Winds: from the E (90 degrees) at 16 MPH (14 knots; 7.2 m/s)
Visibility: 6 or more miles (10+ km)
Ceiling: ceiling and visibility are OK
Clouds: unknown
Weather: no significant weather observed at this time

METAR text: EPKT 222300Z 09015KT CAVOK 09/M02 Q1017
Conditions at: EPKT (KATOWICE/PYRZOWI, PL) observed 2300 UTC 22 April 2019
Temperature: 9.0°C (48°F)
Dewpoint: -2.0°C (28°F) [RH = 46%]
Pressure (altimeter): 30.03 inches Hg (1017.0 mb)
Winds: from the E (90 degrees) at 17 MPH (15 knots; 7.7 m/s)
Visibility: 6 or more miles (10+ km)
Ceiling: ceiling and visibility are OK
Clouds: unknown
Weather: no significant weather observed at this time

Forecast for: EPKT (KATOWICE/PYRZOWI, PL)
Text: TAF EPKT 222330Z 2300/2324 10016KT CAVOK
Forecast period: 0000 UTC 23 April 2019 to 0000 UTC 24 April 2019
Forecast type: FROM: standard forecast or significant change
Winds: from the E (100 degrees) at 18 MPH (16 knots; 8.2 m/s)
Visibility: 6 or more miles 10+ km)
Ceiling: unknown
Clouds: missing
Weather: NSW  (no significant weather)
Text: TEMPO 2307/2316 12020G32KT SCT030CB
Forecast period: 0700 to 1600 UTC 23 April 2019
Forecast type: TEMPORARY: The following changes expected for less than half the time period
Winds: from the ESE (120 degrees) at 23 MPH (20 knots; 10.3 m/s)
gusting to 37 MPH (32 knots; 16.5 m/s)
Visibility: missing
Ceiling: at least 12,000 feet AGL
Clouds: scattered clouds at 3000 feet AGL
Weather: no significant weather forecast for this period